Terminal Aerodrome Forecast
Issued by NWS Wilmington, NC

Current Version | Previous Version | Graphics & Text | Print | Product List | Glossary Off
Versions: 1 2 3 4 5 6 7 8 9 10 11 12 13 14

295
FTUS42 KILM 180532 CCA
TAFLBT
TAF COR
KLBT 180532Z 1806/1906 22004KT P6SM OVC035
     FM180800 VRB06KT P6SM OVC020
     FM181800 25006KT P6SM SCT050
     FM190100 25005KT P6SM BKN040=

USA.gov is the U.S. government's official web portal to all federal, state and local government web resources and services.